Time;durP1;ratioP1;P1;durP2;ratioP2;P2;SDS_P1;SDS_P2;PMS_P1;PMS_P2;Temp;Humidity;BMP_temperature;BMP_pressure;BME280_temperature;BME280_humidity;BME280_pressure;Samples;Min_cycle;Max_cycle;Signal;HPM_P1;HPM_P2
2022/10/20 00:01:09;;;;;;;0.50;0.50;;;7.70;99.90;;;;;;4369611;32;20141;-77
2022/10/20 00:03:35;;;;;;;1.25;0.85;;;7.70;99.90;;;;;;4353938;32;20141;-79
2022/10/20 00:06:20;;;;;;;0.30;0.30;;;7.70;99.90;;;;;;4354534;32;20473;-80
2022/10/20 00:08:46;;;;;;;0.32;0.32;;;7.70;99.90;;;;;;4371645;32;20086;-77
2022/10/20 00:11:14;;;;;;;0.40;0.40;;;7.70;99.90;;;;;;4368360;32;20500;-77
2022/10/20 00:13:41;;;;;;;0.50;0.50;;;7.80;99.90;;;;;;4369962;32;20078;-77
2022/10/20 00:16:07;;;;;;;0.57;0.47;;;7.80;99.90;;;;;;4371745;32;20126;-77
2022/10/20 00:18:34;;;;;;;0.50;0.50;;;7.70;99.90;;;;;;4370597;32;20098;-77
2022/10/20 00:21:03;;;;;;;0.40;0.40;;;7.80;99.90;;;;;;4371646;32;20058;-77
2022/10/20 00:23:28;;;;;;;0.60;0.60;;;7.80;99.90;;;;;;4360827;32;20098;-79
2022/10/20 00:26:00;;;;;;;0.47;0.47;;;7.70;99.90;;;;;;4361046;32;20070;-78
2022/10/20 00:28:26;;;;;;;0.62;0.60;;;7.70;99.90;;;;;;4364501;32;20112;-78
2022/10/20 00:30:55;;;;;;;0.50;0.50;;;7.70;99.90;;;;;;4372350;32;20585;-77
2022/10/20 00:33:21;;;;;;;0.50;0.50;;;7.60;99.90;;;;;;4358784;32;20062;-79
2022/10/20 00:35:48;;;;;;;0.20;0.20;;;7.70;99.90;;;;;;4348210;32;20103;-80
2022/10/20 00:38:14;;;;;;;0.43;0.43;;;7.70;99.90;;;;;;4367773;32;20118;-78
2022/10/20 00:40:39;;;;;;;0.40;0.40;;;7.60;99.90;;;;;;4371073;32;20392;-77
2022/10/20 00:43:10;;;;;;;0.37;0.37;;;7.60;99.90;;;;;;4370999;32;20376;-78
2022/10/20 00:45:36;;;;;;;0.40;0.40;;;7.60;99.90;;;;;;4371518;32;20083;-79
2022/10/20 00:48:13;;;;;;;0.30;0.30;;;7.60;99.90;;;;;;4370365;32;20290;-78
2022/10/20 00:50:42;;;;;;;0.62;0.62;;;7.60;99.90;;;;;;4369085;32;20646;-77
2022/10/20 00:53:08;;;;;;;2.78;0.80;;;7.60;99.90;;;;;;4364238;32;20073;-80
2022/10/20 00:55:36;;;;;;;0.60;0.60;;;7.60;99.90;;;;;;4362543;32;20138;-79
2022/10/20 00:58:03;;;;;;;0.40;0.40;;;7.60;99.90;;;;;;4361945;32;20095;-77
2022/10/20 01:00:29;;;;;;;0.40;0.40;;;7.60;99.90;;;;;;4369985;32;20483;-78
2022/10/20 01:02:58;;;;;;;0.75;0.75;;;7.60;99.90;;;;;;4362796;32;21315;-79
2022/10/20 01:05:25;;;;;;;0.47;0.47;;;7.50;99.90;;;;;;4347363;32;20075;-78
2022/10/20 01:07:51;;;;;;;0.40;0.40;;;7.60;99.90;;;;;;4368719;32;20091;-77
2022/10/20 01:10:17;;;;;;;0.30;0.30;;;7.50;99.90;;;;;;4369264;32;20066;-77
2022/10/20 01:12:55;;;;;;;0.50;0.50;;;7.40;99.90;;;;;;4374403;32;20071;-78
2022/10/20 01:15:45;;;;;;;0.82;0.80;;;7.30;99.90;;;;;;4356107;32;20092;-78
2022/10/20 01:18:20;;;;;;;0.50;0.50;;;7.30;99.90;;;;;;4351082;32;20078;-78
2022/10/20 01:21:25;;;;;;;0.30;0.30;;;7.40;99.90;;;;;;4370138;32;20074;-78
2022/10/20 01:24:28;;;;;;;0.37;0.37;;;7.50;99.90;;;;;;4342801;32;20459;-78
2022/10/20 01:27:20;;;;;;;0.40;0.40;;;7.50;99.90;;;;;;4350329;32;20117;-78
2022/10/20 01:30:11;;;;;;;0.45;0.45;;;7.40;99.90;;;;;;4352310;32;20094;-78
2022/10/20 01:33:03;;;;;;;0.57;0.57;;;7.30;99.90;;;;;;4354314;32;20083;-78
2022/10/20 01:35:35;;;;;;;0.30;0.30;;;7.30;99.90;;;;;;4334475;32;20086;-78
2022/10/20 01:38:24;;;;;;;0.40;0.40;;;7.30;99.90;;;;;;4364429;32;20107;-78
2022/10/20 01:41:02;;;;;;;0.57;0.57;;;7.20;99.90;;;;;;4356709;32;20069;-77
2022/10/20 01:43:31;;;;;;;0.37;0.37;;;7.40;99.90;;;;;;4369758;32;20332;-78
2022/10/20 01:45:58;;;;;;;0.40;0.40;;;7.30;99.90;;;;;;4365017;32;20401;-77
2022/10/20 01:48:30;;;;;;;0.30;0.30;;;7.30;99.90;;;;;;4366933;32;20065;-77
2022/10/20 01:50:56;;;;;;;0.57;0.57;;;7.30;99.90;;;;;;4371297;32;20145;-77
2022/10/20 01:53:21;;;;;;;0.52;0.52;;;7.30;99.90;;;;;;4357460;32;20734;-78
2022/10/20 01:55:56;;;;;;;0.30;0.30;;;7.30;99.90;;;;;;4361597;32;21515;-79
2022/10/20 01:58:42;;;;;;;0.20;0.20;;;7.30;99.90;;;;;;4360761;32;20106;-77
2022/10/20 02:01:30;;;;;;;0.25;0.25;;;7.30;99.90;;;;;;4366211;32;20083;-77
2022/10/20 02:03:58;;;;;;;0.40;0.40;;;7.30;99.90;;;;;;4324354;32;20546;-80
2022/10/20 02:06:52;;;;;;;0.70;0.70;;;7.30;99.90;;;;;;4351042;32;20066;-79
2022/10/20 02:09:28;;;;;;;0.50;0.50;;;7.20;99.90;;;;;;4360158;32;20070;-77
2022/10/20 02:12:00;;;;;;;0.57;0.57;;;7.20;99.90;;;;;;4369569;32;20406;-77
2022/10/20 02:14:25;;;;;;;0.40;0.40;;;7.00;99.90;;;;;;4369254;32;20083;-77
2022/10/20 02:16:58;;;;;;;0.55;0.55;;;6.90;99.90;;;;;;4368321;32;20070;-77
2022/10/20 02:19:28;;;;;;;0.30;0.30;;;7.00;99.90;;;;;;4371650;32;20063;-78
2022/10/20 02:21:56;;;;;;;0.55;0.55;;;7.00;99.90;;;;;;4366063;32;20564;-78
2022/10/20 02:24:27;;;;;;;0.40;0.40;;;7.00;99.90;;;;;;4359710;32;20075;-78
2022/10/20 02:26:58;;;;;;;0.30;0.30;;;7.00;99.90;;;;;;4361061;32;20091;-80
2022/10/20 02:29:27;;;;;;;;;;;7.00;99.90;;;;;;4371092;32;20075;-77
2022/10/20 02:31:54;;;;;;;0.30;0.30;;;7.00;99.90;;;;;;4373299;32;19950;-78
2022/10/20 02:34:19;;;;;;;0.40;0.40;;;6.90;99.90;;;;;;4348063;32;20065;-78
2022/10/20 02:36:45;;;;;;;0.43;0.43;;;6.80;99.90;;;;;;4356378;32;20106;-78
2022/10/20 02:39:11;;;;;;;0.57;0.57;;;6.80;99.90;;;;;;4372350;32;21397;-77
2022/10/20 02:41:37;;;;;;;0.40;0.40;;;6.80;99.90;;;;;;4372585;32;20638;-77
2022/10/20 02:44:03;;;;;;;0.40;0.40;;;6.80;99.90;;;;;;4373140;32;20074;-79
2022/10/20 02:46:29;;;;;;;0.30;0.30;;;6.80;99.90;;;;;;4370825;32;20117;-77
2022/10/20 02:48:54;;;;;;;0.32;0.32;;;6.80;99.90;;;;;;4371670;32;20063;-78
2022/10/20 02:51:20;;;;;;;0.30;0.30;;;6.70;99.90;;;;;;4370999;32;20145;-79
2022/10/20 02:53:45;;;;;;;1.02;0.50;;;6.70;99.90;;;;;;4358822;32;20479;-78
2022/10/20 02:56:11;;;;;;;0.68;0.65;;;6.70;99.90;;;;;;4362274;32;20070;-80
2022/10/20 02:58:36;;;;;;;0.60;0.60;;;6.80;99.90;;;;;;4367536;32;20518;-77
2022/10/20 03:01:03;;;;;;;1.08;0.70;;;6.80;99.90;;;;;;4368097;32;20082;-78
2022/10/20 03:03:28;;;;;;;0.35;0.35;;;6.80;99.90;;;;;;4355490;32;20077;-78
2022/10/20 03:05:54;;;;;;;0.62;0.62;;;6.80;99.90;;;;;;4347624;32;20199;-79
2022/10/20 03:08:20;;;;;;;0.62;0.62;;;6.80;99.90;;;;;;4370419;32;20078;-77
2022/10/20 03:10:45;;;;;;;0.52;0.52;;;6.70;99.90;;;;;;4369700;32;20082;-77
2022/10/20 03:13:11;;;;;;;0.30;0.30;;;6.70;99.90;;;;;;4371633;32;20402;-77
2022/10/20 03:15:37;;;;;;;0.40;0.40;;;6.70;99.90;;;;;;4370274;32;20178;-79
2022/10/20 03:18:02;;;;;;;0.30;0.30;;;6.60;99.90;;;;;;4371369;32;20066;-78
2022/10/20 03:20:28;;;;;;;0.30;0.30;;;6.70;99.90;;;;;;4370501;32;20108;-77
2022/10/20 03:22:53;;;;;;;0.30;0.30;;;6.70;99.90;;;;;;4363734;32;20091;-79
2022/10/20 03:25:19;;;;;;;2.17;0.80;;;6.80;99.90;;;;;;4362748;32;20139;-79
2022/10/20 03:27:44;;;;;;;0.43;0.43;;;6.70;99.90;;;;;;4360695;32;20066;-77
2022/10/20 03:30:10;;;;;;;0.50;0.50;;;6.60;99.90;;;;;;4372275;32;20102;-77
2022/10/20 03:32:35;;;;;;;0.40;0.40;;;6.70;99.90;;;;;;4365539;32;21351;-77
2022/10/20 03:35:01;;;;;;;0.30;0.30;;;6.60;99.90;;;;;;4344876;32;20099;-79
2022/10/20 03:37:26;;;;;;;1.35;0.93;;;6.60;99.90;;;;;;4362355;32;20559;-77
2022/10/20 03:39:52;;;;;;;0.88;0.88;;;6.60;99.90;;;;;;4369957;32;20151;-76
2022/10/20 03:42:17;;;;;;;0.40;0.40;;;6.70;99.90;;;;;;4370246;32;20130;-78
2022/10/20 03:44:44;;;;;;;0.30;0.30;;;6.70;99.90;;;;;;4373412;32;20090;-77
2022/10/20 03:47:11;;;;;;;0.60;0.60;;;6.60;99.90;;;;;;4370156;32;20086;-77
2022/10/20 03:49:37;;;;;;;0.50;0.50;;;6.60;99.90;;;;;;4374624;32;20480;-78
2022/10/20 03:52:03;;;;;;;0.30;0.30;;;6.50;99.90;;;;;;4367180;32;20062;-79
2022/10/20 03:54:28;;;;;;;0.30;0.30;;;6.50;99.90;;;;;;4362456;32;20779;-77
2022/10/20 03:56:54;;;;;;;0.30;0.30;;;6.50;99.90;;;;;;4363981;32;20541;-78
2022/10/20 03:59:19;;;;;;;0.70;0.68;;;6.50;99.90;;;;;;4373165;32;20107;-77
2022/10/20 04:01:46;;;;;;;1.42;0.90;;;6.50;99.90;;;;;;4373260;32;20099;-76
2022/10/20 04:04:12;;;;;;;0.40;0.40;;;6.50;99.90;;;;;;4344991;32;21443;-76
2022/10/20 04:06:37;;;;;;;0.80;0.68;;;6.50;99.90;;;;;;4355528;32;20086;-77
2022/10/20 04:09:03;;;;;;;0.50;0.50;;;6.50;99.90;;;;;;4371411;32;20082;-78
2022/10/20 04:11:29;;;;;;;0.30;0.30;;;6.50;99.90;;;;;;4371102;32;20094;-74
2022/10/20 04:13:55;;;;;;;0.75;0.75;;;6.40;99.90;;;;;;4371483;32;20094;-77
2022/10/20 04:16:20;;;;;;;0.40;0.40;;;6.40;99.90;;;;;;4368691;32;20526;-78
2022/10/20 04:18:46;;;;;;;0.45;0.45;;;6.40;99.90;;;;;;4371092;32;20090;-76
2022/10/20 04:21:11;;;;;;;0.32;0.32;;;6.40;99.90;;;;;;4367287;32;20238;-78
2022/10/20 04:23:37;;;;;;;0.30;0.30;;;6.30;99.90;;;;;;4330761;32;20094;-80
2022/10/20 04:26:13;;;;;;;0.62;0.60;;;6.40;99.90;;;;;;4340279;32;20086;-79
2022/10/20 04:28:38;;;;;;;0.57;0.52;;;6.40;99.90;;;;;;4330691;32;20586;-79
2022/10/20 04:31:04;;;;;;;0.40;0.40;;;6.40;99.90;;;;;;4348753;32;20087;-79
2022/10/20 04:33:30;;;;;;;0.43;0.43;;;6.40;99.90;;;;;;4318502;32;20523;-79
2022/10/20 04:36:00;;;;;;;0.52;0.50;;;6.40;99.90;;;;;;4326331;32;20093;-78
2022/10/20 04:38:28;;;;;;;0.40;0.40;;;6.40;99.90;;;;;;4362163;32;20118;-77
2022/10/20 04:40:55;;;;;;;2.20;0.90;;;6.40;99.90;;;;;;4368389;32;20107;-77
2022/10/20 04:43:20;;;;;;;1.70;0.77;;;6.40;99.90;;;;;;4370467;32;20122;-76
2022/10/20 04:45:47;;;;;;;0.60;0.60;;;6.40;99.90;;;;;;4368710;32;20630;-77
2022/10/20 04:48:13;;;;;;;0.50;0.50;;;6.30;99.90;;;;;;4369401;32;20153;-76
2022/10/20 04:50:38;;;;;;;0.50;0.50;;;6.30;99.90;;;;;;4369446;32;20159;-77
2022/10/20 04:53:04;;;;;;;0.30;0.30;;;6.30;99.90;;;;;;4341355;32;20063;-79
2022/10/20 04:55:29;;;;;;;0.50;0.50;;;6.30;99.90;;;;;;4342420;32;20463;-79
2022/10/20 04:57:55;;;;;;;0.30;0.30;;;6.20;99.90;;;;;;4353758;32;20145;-77
2022/10/20 05:00:20;;;;;;;1.55;1.25;;;6.20;99.90;;;;;;4366853;32;20503;-77
2022/10/20 05:02:46;;;;;;;2.15;1.42;;;6.20;99.90;;;;;;4344365;32;20146;-78
2022/10/20 05:05:11;;;;;;;0.40;0.40;;;6.20;99.90;;;;;;4314310;32;20111;-80
2022/10/20 05:07:37;;;;;;;0.50;0.50;;;6.30;99.90;;;;;;4331076;32;20492;-79
2022/10/20 05:10:03;;;;;;;0.70;0.70;;;6.30;99.90;;;;;;4323104;32;20109;-79
2022/10/20 05:12:28;;;;;;;0.70;0.70;;;6.30;99.90;;;;;;4322868;32;20075;-79
2022/10/20 05:14:54;;;;;;;0.40;0.40;;;6.30;99.90;;;;;;4317598;32;20102;-78
2022/10/20 05:17:19;;;;;;;0.32;0.32;;;6.30;99.90;;;;;;4319983;32;20111;-79
2022/10/20 05:19:45;;;;;;;2.35;0.85;;;6.30;99.90;;;;;;4283417;32;20345;-80
2022/10/20 05:22:10;;;;;;;0.30;0.30;;;6.20;99.90;;;;;;4309514;32;20496;-79
2022/10/20 05:24:37;;;;;;;0.60;0.60;;;6.20;99.90;;;;;;4268769;32;20229;-79
2022/10/20 05:27:02;;;;;;;1.48;1.00;;;6.20;99.90;;;;;;4304864;32;20103;-80
2022/10/20 05:29:28;;;;;;;0.70;0.70;;;6.20;99.90;;;;;;4289171;32;20314;-78
2022/10/20 05:31:53;;;;;;;0.40;0.40;;;6.20;99.90;;;;;;4290597;32;20406;-78
2022/10/20 05:34:19;;;;;;;3.45;1.55;;;6.10;99.90;;;;;;4302285;32;20345;-78
2022/10/20 05:36:44;;;;;;;0.32;0.32;;;6.20;99.90;;;;;;4320166;32;20590;-78
2022/10/20 05:39:10;;;;;;;0.50;0.50;;;6.20;99.90;;;;;;4319891;32;20362;-78
2022/10/20 05:41:36;;;;;;;2.15;1.08;;;6.20;99.90;;;;;;4324440;32;20392;-79
2022/10/20 05:44:03;;;;;;;0.30;0.30;;;6.10;99.90;;;;;;4321612;32;20420;-79
2022/10/20 05:46:32;;;;;;;0.43;0.43;;;6.10;99.90;;;;;;4334382;32;20111;-80
2022/10/20 05:49:00;;;;;;;0.68;0.68;;;6.10;99.90;;;;;;4333133;32;20284;-79
2022/10/20 05:51:28;;;;;;;1.55;0.50;;;6.20;99.90;;;;;;4337387;32;20082;-80
2022/10/20 05:53:55;;;;;;;1.37;0.98;;;6.20;99.90;;;;;;4332629;32;20261;-80
2022/10/20 05:56:22;;;;;;;1.87;0.80;;;6.20;99.90;;;;;;4341758;32;20329;-80
2022/10/20 05:58:48;;;;;;;0.73;0.73;;;6.10;99.90;;;;;;4341151;32;20205;-79
2022/10/20 06:01:19;;;;;;;0.73;0.62;;;6.20;99.90;;;;;;4324678;32;20449;-82
2022/10/20 06:04:00;;;;;;;0.45;0.45;;;6.20;99.90;;;;;;4317112;32;21725;-80
2022/10/20 06:06:27;;;;;;;2.80;0.77;;;6.20;99.90;;;;;;4324705;32;23213;-80
2022/10/20 06:08:54;;;;;;;1.37;0.47;;;6.20;99.90;;;;;;4335878;32;20090;-79
2022/10/20 06:11:20;;;;;;;1.35;1.05;;;6.20;99.90;;;;;;4335518;32;20099;-81
2022/10/20 06:13:46;;;;;;;0.40;0.40;;;6.20;99.90;;;;;;4336889;32;20132;-80
2022/10/20 06:16:14;;;;;;;0.30;0.30;;;6.20;99.90;;;;;;4338085;32;20090;-82
2022/10/20 06:18:42;;;;;;;4.68;0.90;;;6.20;99.90;;;;;;4337608;32;20186;-81
2022/10/20 06:21:14;;;;;;;0.45;0.45;;;6.30;99.90;;;;;;4329505;32;20163;-81
2022/10/20 06:23:40;;;;;;;2.55;1.15;;;6.20;99.90;;;;;;4336164;32;20078;-81
2022/10/20 06:26:09;;;;;;;0.60;0.60;;;6.20;99.90;;;;;;4340836;32;20638;-80
2022/10/20 06:28:37;;;;;;;0.68;0.68;;;6.30;99.90;;;;;;4337848;32;20874;-79
2022/10/20 06:31:12;;;;;;;0.55;0.55;;;6.30;99.90;;;;;;4329772;32;20124;-81
2022/10/20 06:33:38;;;;;;;0.50;0.50;;;6.30;99.90;;;;;;4325979;32;20087;-80
2022/10/20 06:36:04;;;;;;;0.40;0.40;;;6.40;99.90;;;;;;4328069;32;20089;-81
2022/10/20 06:38:30;;;;;;;0.55;0.55;;;6.30;99.90;;;;;;4344383;32;20568;-78
2022/10/20 06:40:55;;;;;;;0.37;0.37;;;6.30;99.90;;;;;;4341241;32;20115;-79
2022/10/20 06:43:22;;;;;;;1.00;1.00;;;6.40;99.90;;;;;;4339181;32;20165;-79
2022/10/20 06:45:56;;;;;;;0.50;0.50;;;6.50;99.90;;;;;;4339093;32;20098;-79
2022/10/20 06:48:23;;;;;;;2.10;0.82;;;6.50;99.90;;;;;;4341134;32;20102;-80
2022/10/20 06:50:48;;;;;;;0.50;0.50;;;6.60;99.90;;;;;;4325867;32;20103;-80
2022/10/20 06:53:14;;;;;;;0.43;0.43;;;6.70;99.90;;;;;;4333464;32;20106;-80
2022/10/20 06:55:40;;;;;;;0.50;0.50;;;6.80;99.90;;;;;;4344700;32;20086;-81
2022/10/20 06:58:05;;;;;;;5.93;1.58;;;6.90;99.90;;;;;;4344934;32;20526;-80
2022/10/20 07:00:30;;;;;;;0.55;0.55;;;6.90;99.90;;;;;;4336965;32;20511;-81
2022/10/20 07:02:56;;;;;;;1.55;1.02;;;7.00;99.90;;;;;;4336311;32;21109;-81
2022/10/20 07:05:21;;;;;;;0.60;0.60;;;7.00;99.90;;;;;;4330438;32;20420;-82
2022/10/20 07:07:47;;;;;;;3.20;1.62;;;7.10;99.90;;;;;;4347725;32;20686;-81
2022/10/20 07:10:12;;;;;;;0.50;0.50;;;7.10;99.90;;;;;;4335618;32;20545;-81
2022/10/20 07:12:38;;;;;;;1.00;0.68;;;7.20;99.90;;;;;;4346717;32;20391;-80
2022/10/20 07:15:05;;;;;;;0.40;0.40;;;7.20;99.90;;;;;;4350184;32;20230;-79
2022/10/20 07:17:31;;;;;;;0.40;0.40;;;7.20;99.90;;;;;;4357544;32;20318;-80
2022/10/20 07:19:56;;;;;;;3.92;1.37;;;7.30;99.90;;;;;;4342780;32;20218;-80
2022/10/20 07:22:22;;;;;;;1.35;0.95;;;7.40;99.90;;;;;;4337534;32;20635;-81
2022/10/20 07:24:47;;;;;;;0.60;0.60;;;7.50;99.90;;;;;;4345562;32;20265;-81
2022/10/20 07:27:13;;;;;;;0.70;0.70;;;7.60;99.90;;;;;;4347538;32;20141;-81
2022/10/20 07:29:39;;;;;;;0.62;0.62;;;7.60;99.90;;;;;;4334201;32;20344;-81
2022/10/20 07:32:05;;;;;;;0.80;0.60;;;7.70;99.90;;;;;;4319148;32;21073;-79
2022/10/20 07:34:33;;;;;;;0.47;0.47;;;7.80;99.90;;;;;;4307671;32;20130;-80
2022/10/20 07:36:59;;;;;;;0.77;0.77;;;8.00;99.90;;;;;;4321384;32;20505;-79
2022/10/20 07:39:25;;;;;;;0.55;0.55;;;8.10;99.90;;;;;;4335389;32;20145;-79
2022/10/20 07:41:53;;;;;;;11.18;3.62;;;8.20;99.90;;;;;;4342734;32;20130;-80
2022/10/20 07:44:20;;;;;;;0.60;0.60;;;8.10;99.90;;;;;;4352927;32;20507;-78
2022/10/20 07:46:45;;;;;;;2.75;1.80;;;8.20;99.90;;;;;;4344883;32;20634;-78
2022/10/20 07:49:12;;;;;;;0.47;0.47;;;8.20;99.90;;;;;;4330569;32;20173;-78
2022/10/20 07:51:37;;;;;;;4.05;1.00;;;8.20;99.90;;;;;;4326465;32;20170;-78
2022/10/20 07:54:06;;;;;;;1.00;0.75;;;8.20;99.90;;;;;;4326642;32;20734;-78
2022/10/20 07:56:35;;;;;;;1.20;0.85;;;8.40;99.90;;;;;;4330661;32;20615;-78
2022/10/20 07:59:03;;;;;;;0.43;0.43;;;8.60;99.90;;;;;;4337642;32;21709;-78
2022/10/20 08:01:29;;;;;;;0.65;0.65;;;8.60;99.90;;;;;;4318818;32;20262;-79
2022/10/20 08:03:55;;;;;;;1.12;0.85;;;8.60;99.90;;;;;;4329358;32;21180;-79
2022/10/20 08:06:21;;;;;;;1.08;0.95;;;8.70;99.90;;;;;;4318651;32;20106;-80
2022/10/20 08:08:47;;;;;;;2.03;1.02;;;8.80;99.90;;;;;;4331359;32;20151;-78
2022/10/20 08:11:13;;;;;;;0.45;0.45;;;8.90;99.90;;;;;;4331887;32;20121;-80
2022/10/20 08:13:40;;;;;;;0.62;0.60;;;8.90;99.90;;;;;;4337224;32;20094;-78
2022/10/20 08:16:07;;;;;;;2.08;0.68;;;9.00;99.90;;;;;;4325118;32;21928;-79
2022/10/20 08:18:32;;;;;;;2.45;1.20;;;9.10;99.90;;;;;;4334510;32;20305;-78
2022/10/20 08:21:09;;;;;;;0.30;0.30;;;9.10;99.90;;;;;;4333173;32;20095;-79
2022/10/20 08:23:38;;;;;;;3.40;1.02;;;9.30;99.90;;;;;;4329066;32;21106;-78
2022/10/20 08:26:04;;;;;;;0.30;0.30;;;9.40;99.90;;;;;;4340463;32;22225;-78
2022/10/20 08:28:32;;;;;;;1.40;0.90;;;9.40;99.90;;;;;;4338925;32;20245;-78
2022/10/20 08:30:59;;;;;;;0.50;0.50;;;9.60;99.90;;;;;;4337180;32;20090;-78
2022/10/20 08:33:25;;;;;;;1.17;0.60;;;9.80;99.90;;;;;;4330519;32;110451;-79
2022/10/20 08:35:51;;;;;;;0.47;0.47;;;9.90;99.90;;;;;;4336284;32;20090;-80
2022/10/20 08:38:17;;;;;;;0.40;0.40;;;10.00;99.90;;;;;;4345813;32;20190;-80
2022/10/20 08:40:43;;;;;;;0.70;0.70;;;10.30;99.90;;;;;;4342067;32;20086;-80
2022/10/20 08:43:17;;;;;;;11.38;1.45;;;10.40;99.90;;;;;;4337878;32;20089;-80
2022/10/20 08:45:42;;;;;;;1.52;1.15;;;10.50;99.90;;;;;;4335901;32;20636;-78
2022/10/20 08:48:15;;;;;;;0.47;0.47;;;10.60;99.90;;;;;;4339882;32;20378;-79
2022/10/20 08:50:46;;;;;;;3.20;0.77;;;10.70;99.90;;;;;;4332359;32;20135;-79
2022/10/20 08:53:12;;;;;;;;;;;10.90;99.90;;;;;;4340054;32;20823;-80
2022/10/20 08:55:37;;;;;;;0.30;0.30;;;10.90;99.90;;;;;;4336278;32;19980;-79
2022/10/20 08:58:10;;;;;;;7.78;1.10;;;10.90;99.90;;;;;;4340710;32;20241;-79
2022/10/20 09:00:37;;;;;;;0.62;0.60;;;11.00;99.90;;;;;;4328609;32;20158;-79
2022/10/20 09:03:21;;;;;;;0.30;0.30;;;10.90;99.90;;;;;;4326190;32;21034;-79
2022/10/20 09:05:53;;;;;;;1.48;0.75;;;11.00;99.90;;;;;;4321670;32;20146;-79
2022/10/20 09:08:20;;;;;;;0.30;0.30;;;11.20;99.90;;;;;;4323927;32;20606;-79
2022/10/20 09:10:49;;;;;;;0.60;0.60;;;11.30;99.90;;;;;;4320621;32;20890;-80
2022/10/20 09:13:25;;;;;;;1.80;0.95;;;11.30;99.90;;;;;;4326351;32;20165;-79
2022/10/20 09:15:56;;;;;;;0.30;0.30;;;11.40;99.90;;;;;;4332009;32;20098;-78
2022/10/20 09:18:22;;;;;;;0.55;0.50;;;11.60;99.90;;;;;;4333022;32;20112;-80
2022/10/20 09:21:07;;;;;;;0.40;0.40;;;11.70;99.90;;;;;;4315286;32;20541;-79
2022/10/20 09:23:38;;;;;;;1.75;1.02;;;11.80;99.90;;;;;;4324006;32;20642;-81
2022/10/20 09:26:10;;;;;;;1.65;0.57;;;11.90;99.90;;;;;;4332876;32;20234;-80
2022/10/20 09:28:35;;;;;;;3.15;0.55;;;12.00;99.90;;;;;;4336813;32;21214;-78
2022/10/20 09:31:01;;;;;;;2.37;1.00;;;12.20;99.90;;;;;;4328313;32;20557;-81
2022/10/20 09:33:30;;;;;;;0.47;0.47;;;12.20;99.90;;;;;;4320056;32;21078;-79
2022/10/20 09:36:03;;;;;;;0.60;0.60;;;12.40;99.90;;;;;;4316032;32;20407;-78
2022/10/20 09:38:31;;;;;;;0.77;0.70;;;12.60;99.90;;;;;;4330294;32;20103;-79
2022/10/20 09:41:21;;;;;;;2.08;1.15;;;12.60;99.90;;;;;;4334814;32;20094;-79
2022/10/20 09:44:10;;;;;;;3.05;0.82;;;12.60;99.90;;;;;;4324700;32;20090;-79
2022/10/20 09:46:44;;;;;;;0.60;0.60;;;12.80;99.90;;;;;;4339741;32;20110;-79
2022/10/20 09:49:37;;;;;;;0.40;0.40;;;12.90;99.90;;;;;;4332647;32;20858;-79
2022/10/20 09:52:16;;;;;;;0.85;0.50;;;13.00;99.90;;;;;;4338305;32;20886;-78
2022/10/20 09:54:46;;;;;;;0.95;0.82;;;13.00;99.90;;;;;;4331507;32;20146;-79
2022/10/20 09:57:18;;;;;;;0.50;0.50;;;13.00;99.90;;;;;;4330783;32;20287;-78
2022/10/20 09:59:45;;;;;;;0.70;0.70;;;13.10;99.90;;;;;;4330062;32;20146;-78
2022/10/20 10:02:16;;;;;;;0.40;0.40;;;13.30;99.90;;;;;;4323475;32;20698;-79
2022/10/20 10:04:44;;;;;;;0.40;0.40;;;13.20;99.90;;;;;;4309096;32;20210;-79
2022/10/20 10:07:29;;;;;;;0.57;0.57;;;13.30;99.90;;;;;;4317398;32;20132;-77
2022/10/20 10:10:01;;;;;;;1.10;0.62;;;13.50;99.90;;;;;;4340619;32;20336;-80
2022/10/20 10:12:34;;;;;;;0.40;0.40;;;13.60;99.90;;;;;;4349959;32;20266;-78
2022/10/20 10:15:06;;;;;;;0.77;0.60;;;13.60;99.90;;;;;;4336959;32;20805;-77
2022/10/20 10:17:34;;;;;;;0.47;0.47;;;13.60;99.90;;;;;;4301744;32;20095;-79
2022/10/20 10:20:05;;;;;;;0.65;0.65;;;13.70;99.90;;;;;;4314507;32;20177;-79
2022/10/20 10:22:31;;;;;;;5.37;2.30;;;13.70;99.90;;;;;;4340042;32;20347;-80
2022/10/20 10:24:58;;;;;;;0.45;0.45;;;13.60;99.90;;;;;;4340416;32;20098;-79
2022/10/20 10:27:28;;;;;;;0.75;0.70;;;13.70;99.90;;;;;;4337699;32;20099;-79
2022/10/20 10:30:14;;;;;;;0.50;0.50;;;13.80;99.90;;;;;;4334845;32;20758;-78
2022/10/20 10:32:43;;;;;;;0.43;0.43;;;13.70;99.90;;;;;;4322349;32;20677;-81
2022/10/20 10:35:31;;;;;;;0.55;0.55;;;13.80;99.90;;;;;;4321617;32;20347;-78
2022/10/20 10:37:59;;;;;;;0.75;0.60;;;13.90;99.90;;;;;;4322874;32;20171;-80
2022/10/20 10:40:35;;;;;;;0.43;0.43;;;14.00;99.90;;;;;;4342067;32;20123;-78
2022/10/20 10:43:33;;;;;;;0.52;0.40;;;14.10;99.90;;;;;;4349253;32;20093;-78
2022/10/20 10:46:25;;;;;;;0.50;0.50;;;14.00;99.90;;;;;;4342876;32;20118;-78
2022/10/20 10:49:22;;;;;;;0.52;0.52;;;14.10;99.90;;;;;;4321437;32;20620;-77
2022/10/20 10:52:28;;;;;;;0.45;0.45;;;14.10;99.90;;;;;;4309523;32;20240;-76
2022/10/20 10:55:22;;;;;;;1.65;0.98;;;14.20;99.90;;;;;;4283750;32;20099;-75
2022/10/20 10:58:01;;;;;;;1.55;1.30;;;14.30;99.90;;;;;;4314004;32;20098;-77
2022/10/20 11:00:41;;;;;;;0.47;0.47;;;14.50;99.90;;;;;;4326403;32;20126;-76
2022/10/20 11:03:36;;;;;;;0.70;0.70;;;14.60;99.90;;;;;;4324828;32;20127;-76
2022/10/20 11:06:11;;;;;;;0.40;0.40;;;14.90;99.90;;;;;;4323669;32;21173;-76
2022/10/20 11:09:02;;;;;;;0.40;0.40;;;14.90;99.90;;;;;;4340696;32;20094;-76
2022/10/20 11:11:40;;;;;;;;;;;14.80;99.90;;;;;;4337305;32;20484;-75
2022/10/20 11:14:45;;;;;;;0.62;0.50;;;14.90;99.90;;;;;;4341508;32;20013;-76
2022/10/20 11:17:37;;;;;;;0.70;0.50;;;15.00;99.90;;;;;;4319668;32;20511;-77
2022/10/20 11:20:18;;;;;;;0.40;0.40;;;15.50;99.90;;;;;;4311593;32;20258;-78
2022/10/20 11:22:56;;;;;;;0.60;0.60;;;15.80;99.90;;;;;;4326917;32;20868;-76
2022/10/20 11:25:31;;;;;;;0.57;0.57;;;16.20;99.90;;;;;;4338252;32;20094;-76
2022/10/20 11:27:58;;;;;;;0.50;0.50;;;16.50;99.90;;;;;;4341600;32;20755;-77
2022/10/20 11:30:26;;;;;;;6.47;2.30;;;16.60;99.90;;;;;;4327254;32;20163;-77
2022/10/20 11:32:59;;;;;;;0.50;0.50;;;16.90;99.90;;;;;;4331826;32;20182;-78
2022/10/20 11:35:38;;;;;;;0.47;0.47;;;17.30;99.90;;;;;;4324184;32;20142;-76
2022/10/20 11:38:25;;;;;;;0.40;0.40;;;17.70;99.90;;;;;;4334412;32;20109;-76
2022/10/20 11:41:15;;;;;;;0.75;0.60;;;17.80;99.90;;;;;;4315554;32;20113;-76
2022/10/20 11:43:57;;;;;;;0.50;0.50;;;18.20;99.90;;;;;;4314726;32;20127;-76
2022/10/20 11:46:33;;;;;;;0.50;0.50;;;17.90;99.90;;;;;;4327716;32;20938;-79
2022/10/20 11:48:59;;;;;;;0.60;0.60;;;18.00;99.90;;;;;;4309283;32;20755;-75
2022/10/20 11:51:42;;;;;;;0.40;0.40;;;18.20;99.90;;;;;;4326911;32;20177;-78
2022/10/20 11:54:30;;;;;;;0.57;0.57;;;18.10;99.90;;;;;;4337677;32;20166;-77
2022/10/20 11:57:07;;;;;;;0.60;0.60;;;18.20;99.90;;;;;;4330131;32;20293;-77
2022/10/20 11:59:52;;;;;;;0.62;0.62;;;18.30;99.90;;;;;;4338194;32;20082;-76
2022/10/20 12:02:57;;;;;;;0.37;0.37;;;18.20;99.90;;;;;;4343236;32;20163;-75
2022/10/20 12:05:42;;;;;;;0.82;0.80;;;18.30;99.90;;;;;;4316583;32;20146;-77
2022/10/20 12:08:21;;;;;;;0.30;0.30;;;18.30;99.90;;;;;;4341400;32;20574;-76
2022/10/20 12:11:15;;;;;;;0.50;0.50;;;18.00;99.90;;;;;;4350755;32;20467;-77
2022/10/20 12:14:20;;;;;;;0.50;0.50;;;18.10;99.90;;;;;;4336643;32;21793;-76
2022/10/20 12:16:57;;;;;;;0.43;0.43;;;18.30;99.90;;;;;;4333471;32;20363;-76
2022/10/20 12:19:33;;;;;;;0.40;0.40;;;18.70;99.90;;;;;;4333843;32;20524;-76
2022/10/20 12:22:17;;;;;;;0.62;0.50;;;18.80;99.80;;;;;;4343983;32;20853;-75
2022/10/20 12:24:52;;;;;;;0.40;0.40;;;18.50;99.50;;;;;;4345387;32;20199;-77
2022/10/20 12:27:20;;;;;;;0.40;0.40;;;18.40;99.90;;;;;;4353359;32;20127;-77
2022/10/20 12:29:50;;;;;;;2.53;0.77;;;18.50;99.10;;;;;;4344944;32;20189;-77
2022/10/20 12:32:38;;;;;;;0.50;0.50;;;18.80;99.60;;;;;;4339724;32;20318;-77
2022/10/20 12:35:24;;;;;;;0.40;0.40;;;19.30;98.80;;;;;;4321362;32;20079;-77
2022/10/20 12:37:55;;;;;;;0.37;0.37;;;19.60;98.80;;;;;;4336949;32;20090;-77
2022/10/20 12:40:28;;;;;;;0.57;0.40;;;19.60;98.50;;;;;;4356861;32;20058;-78
2022/10/20 12:42:55;;;;;;;0.30;0.30;;;19.90;97.70;;;;;;4359785;32;20191;-77
2022/10/20 12:45:29;;;;;;;0.45;0.45;;;19.30;98.60;;;;;;4359749;32;20098;-77
2022/10/20 12:47:58;;;;;;;0.70;0.70;;;19.10;98.90;;;;;;4347602;32;20519;-78
2022/10/20 12:50:37;;;;;;;0.32;0.32;;;18.80;98.90;;;;;;4345093;32;20216;-79
2022/10/20 12:53:25;;;;;;;0.50;0.50;;;18.90;99.50;;;;;;4342885;32;20162;-76
2022/10/20 12:55:56;;;;;;;0.37;0.37;;;19.00;99.00;;;;;;4343763;32;20090;-77
2022/10/20 12:58:28;;;;;;;0.57;0.57;;;18.90;99.30;;;;;;4353039;32;20760;-78
2022/10/20 13:00:57;;;;;;;0.55;0.55;;;18.60;99.70;;;;;;4338999;32;20093;-78
2022/10/20 13:03:45;;;;;;;0.50;0.50;;;18.50;99.90;;;;;;4327972;32;20138;-77
2022/10/20 13:06:32;;;;;;;2.83;0.60;;;17.90;99.90;;;;;;4330892;32;20100;-76
2022/10/20 13:09:10;;;;;;;0.57;0.57;;;17.40;99.90;;;;;;4349875;32;20337;-78
2022/10/20 13:11:38;;;;;;;0.40;0.40;;;17.20;99.90;;;;;;4362350;32;20506;-77
2022/10/20 13:14:20;;;;;;;0.60;0.60;;;16.80;99.90;;;;;;4361529;32;20299;-76
2022/10/20 13:17:10;;;;;;;1.23;0.90;;;16.90;99.90;;;;;;4344145;32;20175;-77